To NAV CANADA Home Page Login to a new session Search on AWWS site Feedback and Comments Disclaimer Vers la page française équivalente Tips FAQ What's new on the site To the Forecasts and Observations / NOTAM section To "File a Flight Plan" website Publications and other links Update of the User's profile FIC Telephone Numbers My Weather Data Folder Route Weather Data Regional Weather Data Local Weather Data To the Forecasts and Observations / NOTAM section
Request Generated 02/07/2016 at 10:18:54 UTC . Weather information available at that time is displayed.

METAR/TAF

MONTREAL/PIERRE-ELLIOTT-TRUDEAU INTL/QC    

METAR CYUL 071000Z 33010KT 15SM -SHSN BKN030 OVC055 M02/M06 A3008 RMK
SC6SC2 SLP191=
SPECI CYUL 070910Z 25011G16KT 15SM -SHSN BKN033 OVC050 01/M03 A3005
RMK SC5SC3 SLP178=
METAR CYUL 070900Z CCA 24013G19KT 15SM FEW038 OVC056 01/M03 A3004 RMK
SC2SC6 SLP175=
METAR CYUL 070900Z 24013G19KT 15SM FEW038 BKN056 01/M03 A3004 RMK
SC2SC4 SLP175=
METAR CYUL 070800Z 24015KT 15SM BKN038 OVC055 01/M03 A3002 RMK SC6SC2
SLP170=

TAF CYUL 070838Z 0709/0806 24015KT P6SM SCT030 BKN060 TEMPO 0709/0712
3SM -SN BKN030 OVC060
FM071200 34010KT P6SM BKN040
BECMG 0714/0716 04015KT
FM072300 05015G25KT P6SM BKN040 OVC120
RMK NXT FCST BY 071200Z=
Your time UTC time
Weather data provided by Environment Canada and NAV CANADA